JA69KM RPVM-RPVB
Flight info
| Callsign | JA69KM |
|---|---|
| Flight time | 0h 30m |
| Altitude | 14000 |
| Route | PARAO1Q PARAO W6A KADSO KADSO1 |
| Aircraft | SF50/L-SBDGRWY/LB2U2 |
Departure
| Time | 2026-05-05 13:24 |
|---|---|
| Airport | Mactan Cebu International Airport (RPVM) |
Arrival
| Time | 2026-05-05 13:54 |
|---|---|
| Airport | Bacolod-Silay International Airport (RPVB) |
| Time | Latitude | Longitude | Altitude | Speed | Heading |
|---|---|---|---|---|---|
| 2026-05-05 13:17 | 10.29795 | 123.97334 | 32 ft | 0 kts | 44° |
| 2026-05-05 13:20 | 10.29802 | 123.97337 | 32 ft | 4 kts | 358° |
| 2026-05-05 13:20 | 10.29844 | 123.97355 | 32 ft | 8 kts | 44° |
| 2026-05-05 13:20 | 10.29891 | 123.97402 | 32 ft | 10 kts | 44° |
| 2026-05-05 13:20 | 10.29940 | 123.97451 | 32 ft | 9 kts | 44° |
| 2026-05-05 13:21 | 10.29979 | 123.97490 | 32 ft | 7 kts | 46° |
| 2026-05-05 13:21 | 10.30020 | 123.97490 | 31 ft | 8 kts | 309° |
| 2026-05-05 13:21 | 10.30066 | 123.97443 | 30 ft | 11 kts | 318° |
| 2026-05-05 13:21 | 10.30127 | 123.97387 | 29 ft | 13 kts | 314° |
| 2026-05-05 13:22 | 10.30188 | 123.97325 | 29 ft | 11 kts | 315° |
| 2026-05-05 13:22 | 10.30227 | 123.97284 | 30 ft | 6 kts | 314° |
| 2026-05-05 13:22 | 10.30253 | 123.97256 | 31 ft | 6 kts | 314° |
| 2026-05-05 13:22 | 10.30289 | 123.97228 | 32 ft | 8 kts | 349° |
| 2026-05-05 13:23 | 10.30341 | 123.97263 | 33 ft | 19 kts | 46° |
| 2026-05-05 13:23 | 10.30598 | 123.97519 | 33 ft | 84 kts | 44° |
| 2026-05-05 13:23 | 10.31102 | 123.98015 | 250 ft | 114 kts | 44° |
| 2026-05-05 13:23 | 10.31728 | 123.98640 | 533 ft | 133 kts | 45° |
| 2026-05-05 13:24 | 10.32389 | 123.99316 | 987 ft | 137 kts | 45° |
| 2026-05-05 13:24 | 10.33086 | 124.00017 | 1429 ft | 146 kts | 45° |
| 2026-05-05 13:24 | 10.33838 | 124.00725 | 1937 ft | 150 kts | 43° |
| 2026-05-05 13:24 | 10.34355 | 124.01220 | 2208 ft | 158 kts | 45° |
| 2026-05-05 13:25 | 10.37745 | 124.02180 | 3728 ft | 189 kts | 322° |
| 2026-05-05 13:25 | 10.38595 | 124.01176 | 4295 ft | 186 kts | 311° |
| 2026-05-05 13:26 | 10.39491 | 124.00240 | 4792 ft | 185 kts | 324° |
| 2026-05-05 13:26 | 10.40548 | 123.99488 | 5269 ft | 186 kts | 329° |
| 2026-05-05 13:26 | 10.41626 | 123.98758 | 5762 ft | 187 kts | 328° |
| 2026-05-05 13:26 | 10.42708 | 123.98006 | 6246 ft | 189 kts | 328° |
| 2026-05-05 13:27 | 10.43795 | 123.97246 | 6709 ft | 190 kts | 328° |
| 2026-05-05 13:27 | 10.44891 | 123.96477 | 7151 ft | 192 kts | 328° |
| 2026-05-05 13:27 | 10.45985 | 123.95717 | 7602 ft | 194 kts | 328° |
| 2026-05-05 13:27 | 10.47100 | 123.94935 | 8056 ft | 195 kts | 327° |
| 2026-05-05 13:28 | 10.48222 | 123.94153 | 8492 ft | 197 kts | 328° |
| 2026-05-05 13:28 | 10.49354 | 123.93363 | 8930 ft | 198 kts | 327° |
| 2026-05-05 13:28 | 10.50495 | 123.92566 | 9360 ft | 200 kts | 327° |
| 2026-05-05 13:28 | 10.51644 | 123.91762 | 9790 ft | 201 kts | 327° |
| 2026-05-05 13:29 | 10.52803 | 123.90953 | 10179 ft | 203 kts | 327° |
| 2026-05-05 13:29 | 10.53965 | 123.90137 | 10570 ft | 204 kts | 327° |
| 2026-05-05 13:29 | 10.55134 | 123.89320 | 10976 ft | 204 kts | 327° |
| 2026-05-05 13:29 | 10.56309 | 123.88496 | 11359 ft | 205 kts | 327° |
| 2026-05-05 13:30 | 10.57489 | 123.87671 | 11725 ft | 207 kts | 327° |
| 2026-05-05 13:30 | 10.58676 | 123.86840 | 12103 ft | 208 kts | 326° |
| 2026-05-05 13:30 | 10.59668 | 123.85765 | 12459 ft | 211 kts | 305° |
| 2026-05-05 13:30 | 10.60514 | 123.84541 | 12816 ft | 212 kts | 308° |
| 2026-05-05 13:31 | 10.61402 | 123.83342 | 13179 ft | 213 kts | 308° |
| 2026-05-05 13:31 | 10.62285 | 123.82128 | 13547 ft | 214 kts | 307° |
| 2026-05-05 13:31 | 10.63163 | 123.80904 | 13870 ft | 215 kts | 307° |
| 2026-05-05 13:31 | 10.64081 | 123.79630 | 13910 ft | 231 kts | 307° |
| 2026-05-05 13:32 | 10.65057 | 123.78276 | 13925 ft | 244 kts | 307° |
| 2026-05-05 13:32 | 10.66079 | 123.76856 | 13918 ft | 254 kts | 307° |
| 2026-05-05 13:32 | 10.67135 | 123.75387 | 13918 ft | 261 kts | 307° |
| 2026-05-05 13:32 | 10.68218 | 123.73884 | 13920 ft | 266 kts | 307° |
| 2026-05-05 13:33 | 10.69316 | 123.72357 | 13923 ft | 269 kts | 307° |
| 2026-05-05 13:33 | 10.70426 | 123.70815 | 13919 ft | 271 kts | 307° |
| 2026-05-05 13:33 | 10.71544 | 123.69264 | 13924 ft | 273 kts | 307° |
| 2026-05-05 13:33 | 10.72666 | 123.67705 | 13925 ft | 274 kts | 307° |
| 2026-05-05 13:34 | 10.73789 | 123.66144 | 13926 ft | 273 kts | 307° |
| 2026-05-05 13:34 | 10.74911 | 123.64584 | 13926 ft | 273 kts | 307° |
| 2026-05-05 13:34 | 10.76035 | 123.63022 | 13922 ft | 273 kts | 307° |
| 2026-05-05 13:34 | 10.77158 | 123.61458 | 13922 ft | 274 kts | 307° |
| 2026-05-05 13:35 | 10.78282 | 123.59897 | 13927 ft | 274 kts | 307° |
| 2026-05-05 13:35 | 10.79403 | 123.58334 | 13922 ft | 274 kts | 307° |
| 2026-05-05 13:35 | 10.80527 | 123.56773 | 13922 ft | 274 kts | 307° |
| 2026-05-05 13:35 | 10.81649 | 123.55210 | 13927 ft | 274 kts | 307° |
| 2026-05-05 13:36 | 10.82760 | 123.53665 | 13920 ft | 274 kts | 307° |
| 2026-05-05 13:36 | 10.83882 | 123.52103 | 13924 ft | 274 kts | 307° |
| 2026-05-05 13:36 | 10.85005 | 123.50541 | 13919 ft | 274 kts | 307° |
| 2026-05-05 13:36 | 10.86131 | 123.48975 | 13924 ft | 274 kts | 307° |
| 2026-05-05 13:37 | 10.87253 | 123.47411 | 13926 ft | 274 kts | 307° |
| 2026-05-05 13:37 | 10.88377 | 123.45847 | 13926 ft | 274 kts | 307° |
| 2026-05-05 13:37 | 10.89500 | 123.44281 | 13922 ft | 274 kts | 307° |
| 2026-05-05 13:37 | 10.90625 | 123.42713 | 13922 ft | 274 kts | 307° |
| 2026-05-05 13:38 | 10.91749 | 123.41149 | 13928 ft | 274 kts | 307° |
| 2026-05-05 13:38 | 10.93030 | 123.39738 | 13924 ft | 271 kts | 319° |
| 2026-05-05 13:38 | 10.94419 | 123.38438 | 13925 ft | 272 kts | 318° |
| 2026-05-05 13:38 | 10.95327 | 123.37559 | 13925 ft | 272 kts | 317° |
| 2026-05-05 13:39 | 10.96694 | 123.36231 | 13920 ft | 272 kts | 317° |
| 2026-05-05 13:39 | 10.98300 | 123.34249 | 13849 ft | 276 kts | 299° |
| 2026-05-05 13:39 | 10.98982 | 123.32410 | 13738 ft | 280 kts | 283° |
| 2026-05-05 13:39 | 10.99142 | 123.31104 | 13651 ft | 283 kts | 272° |
| 2026-05-05 13:40 | 10.98920 | 123.29114 | 13517 ft | 285 kts | 255° |
| 2026-05-05 13:40 | 10.98145 | 123.27258 | 13387 ft | 287 kts | 238° |
| 2026-05-05 13:40 | 10.96923 | 123.25657 | 13259 ft | 287 kts | 229° |
| 2026-05-05 13:40 | 10.95635 | 123.24102 | 13144 ft | 288 kts | 229° |
| 2026-05-05 13:41 | 10.94351 | 123.22528 | 13011 ft | 290 kts | 229° |
| 2026-05-05 13:41 | 10.92615 | 123.20414 | 12687 ft | 297 kts | 229° |
| 2026-05-05 13:41 | 10.91282 | 123.18793 | 12441 ft | 301 kts | 229° |
| 2026-05-05 13:41 | 10.90377 | 123.17689 | 12278 ft | 301 kts | 229° |
| 2026-05-05 13:42 | 10.89030 | 123.16049 | 12037 ft | 301 kts | 229° |
| 2026-05-05 13:42 | 10.87689 | 123.14418 | 11796 ft | 300 kts | 229° |
| 2026-05-05 13:42 | 10.86351 | 123.12787 | 11546 ft | 302 kts | 229° |
| 2026-05-05 13:42 | 10.85012 | 123.11160 | 11265 ft | 293 kts | 228° |
| 2026-05-05 13:43 | 10.83745 | 123.09616 | 10985 ft | 286 kts | 228° |
| 2026-05-05 13:43 | 10.82477 | 123.08077 | 10704 ft | 278 kts | 228° |
| 2026-05-05 13:43 | 10.81258 | 123.06593 | 10424 ft | 271 kts | 228° |
| 2026-05-05 13:43 | 10.80053 | 123.05131 | 10147 ft | 269 kts | 228° |
| 2026-05-05 13:44 | 10.78845 | 123.03690 | 9865 ft | 266 kts | 224° |
| 2026-05-05 13:44 | 10.77381 | 123.02556 | 9560 ft | 264 kts | 207° |
| 2026-05-05 13:44 | 10.75685 | 123.01869 | 9247 ft | 261 kts | 192° |
| 2026-05-05 13:44 | 10.73908 | 123.01605 | 8959 ft | 257 kts | 184° |
| 2026-05-05 13:45 | 10.72135 | 123.01391 | 8663 ft | 257 kts | 185° |
| 2026-05-05 13:45 | 10.70361 | 123.01162 | 8366 ft | 256 kts | 185° |
| 2026-05-05 13:45 | 10.68596 | 123.00940 | 8077 ft | 255 kts | 185° |
| 2026-05-05 13:45 | 10.66837 | 123.00720 | 7789 ft | 254 kts | 185° |
| 2026-05-05 13:46 | 10.65086 | 123.00502 | 7504 ft | 253 kts | 185° |
| 2026-05-05 13:46 | 10.63340 | 123.00284 | 7223 ft | 252 kts | 185° |
| 2026-05-05 13:46 | 10.61630 | 123.00071 | 6954 ft | 247 kts | 185° |
| 2026-05-05 13:46 | 10.59980 | 122.99863 | 6692 ft | 231 kts | 185° |
| 2026-05-05 13:47 | 10.58420 | 122.99668 | 6455 ft | 223 kts | 185° |
| 2026-05-05 13:47 | 10.56887 | 122.99436 | 6239 ft | 222 kts | 194° |
| 2026-05-05 13:47 | 10.55523 | 122.98685 | 6102 ft | 228 kts | 217° |
| 2026-05-05 13:47 | 10.54497 | 122.97441 | 5842 ft | 231 kts | 240° |
| 2026-05-05 13:48 | 10.54010 | 122.95909 | 5547 ft | 228 kts | 262° |
| 2026-05-05 13:48 | 10.54111 | 122.94339 | 5257 ft | 217 kts | 284° |
| 2026-05-05 13:48 | 10.54716 | 122.92995 | 4974 ft | 205 kts | 305° |
| 2026-05-05 13:48 | 10.55687 | 122.91977 | 4707 ft | 199 kts | 324° |
| 2026-05-05 13:49 | 10.56910 | 122.91351 | 4443 ft | 197 kts | 343° |
| 2026-05-05 13:49 | 10.58240 | 122.91161 | 4184 ft | 196 kts | 2° |
| 2026-05-05 13:49 | 10.59566 | 122.91417 | 3925 ft | 194 kts | 22° |
| 2026-05-05 13:49 | 10.60746 | 122.92051 | 3642 ft | 192 kts | 33° |
| 2026-05-05 13:50 | 10.61920 | 122.92708 | 3348 ft | 190 kts | 29° |
| 2026-05-05 13:50 | 10.63052 | 122.93323 | 3104 ft | 180 kts | 32° |
| 2026-05-05 13:50 | 10.64112 | 122.93961 | 2873 ft | 176 kts | 32° |
| 2026-05-05 13:50 | 10.65179 | 122.94586 | 2652 ft | 177 kts | 31° |
| 2026-05-05 13:51 | 10.66251 | 122.95210 | 2435 ft | 178 kts | 33° |
| 2026-05-05 13:51 | 10.67322 | 122.95847 | 2226 ft | 178 kts | 31° |
| 2026-05-05 13:51 | 10.68368 | 122.96451 | 2022 ft | 162 kts | 31° |
| 2026-05-05 13:51 | 10.69269 | 122.96981 | 1822 ft | 142 kts | 32° |
| 2026-05-05 13:52 | 10.70098 | 122.97467 | 1642 ft | 137 kts | 31° |
| 2026-05-05 13:52 | 10.70905 | 122.97948 | 1467 ft | 135 kts | 31° |
| 2026-05-05 13:52 | 10.71729 | 122.98421 | 1284 ft | 137 kts | 31° |
| 2026-05-05 13:52 | 10.72565 | 122.98914 | 1126 ft | 141 kts | 31° |
| 2026-05-05 13:53 | 10.73447 | 122.99413 | 988 ft | 146 kts | 29° |
| 2026-05-05 13:53 | 10.74269 | 122.99878 | 769 ft | 124 kts | 31° |
| 2026-05-05 13:53 | 10.74987 | 123.00310 | 570 ft | 115 kts | 33° |
| 2026-05-05 13:53 | 10.75641 | 123.00702 | 401 ft | 105 kts | 34° |
| 2026-05-05 13:54 | 10.76243 | 123.01069 | 277 ft | 96 kts | 31° |
| 2026-05-05 13:54 | 10.76785 | 123.01385 | 151 ft | 84 kts | 32° |
| 2026-05-05 13:54 | 10.77243 | 123.01661 | 88 ft | 66 kts | 31° |
| 2026-05-05 13:54 | 10.77552 | 123.01843 | 89 ft | 25 kts | 30° |
| 2026-05-05 13:55 | 10.77643 | 123.01885 | 87 ft | 7 kts | 354° |
| 2026-05-05 13:55 | 10.77676 | 123.01873 | 88 ft | 4 kts | 320° |
| 2026-05-05 13:55 | 10.77697 | 123.01842 | 88 ft | 7 kts | 297° |
| 2026-05-05 13:55 | 10.77711 | 123.01818 | 88 ft | 8 kts | 301° |
| 2026-05-05 13:56 | 10.77740 | 123.01768 | 87 ft | 8 kts | 299° |
| 2026-05-05 13:56 | 10.77748 | 123.01712 | 87 ft | 8 kts | 250° |
| 2026-05-05 13:56 | 10.77708 | 123.01673 | 87 ft | 8 kts | 208° |
| 2026-05-05 13:56 | 10.77667 | 123.01649 | 87 ft | 6 kts | 213° |
| 2026-05-05 13:57 | 10.77635 | 123.01631 | 87 ft | 5 kts | 208° |
| 2026-05-05 13:57 | 10.77606 | 123.01614 | 91 ft | 5 kts | 210° |
| 2026-05-05 13:57 | 10.77579 | 123.01598 | 89 ft | 4 kts | 210° |
| 2026-05-05 13:57 | 10.77551 | 123.01582 | 87 ft | 5 kts | 210° |
| 2026-05-05 13:58 | 10.77515 | 123.01561 | 88 ft | 7 kts | 210° |
| 2026-05-05 13:58 | 10.77470 | 123.01535 | 87 ft | 8 kts | 209° |
| 2026-05-05 13:58 | 10.77415 | 123.01506 | 88 ft | 10 kts | 195° |
| 2026-05-05 13:58 | 10.77347 | 123.01474 | 81 ft | 15 kts | 210° |
| 2026-05-05 13:59 | 10.77262 | 123.01379 | 81 ft | 6 kts | 302° |
| 2026-05-05 13:59 | 10.77281 | 123.01374 | 80 ft | 0 kts | 28° |